Time;durP1;ratioP1;P1;durP2;ratioP2;P2;SDS_P1;SDS_P2;PMS_P1;PMS_P2;Temp;Humidity;BMP_temperature;BMP_pressure;BME280_temperature;BME280_humidity;BME280_pressure;Samples;Min_cycle;Max_cycle;Signal;HPM_P1;HPM_P2
2023/02/19 00:01:47;;;;;;;24.65;9.68;;;;;;;10.36;100.00;101662.09;5119245;28;20048;-70
2023/02/19 00:04:16;;;;;;;21.88;9.20;;;;;;;10.36;100.00;101662.09;5109964;28;20500;-69
2023/02/19 00:06:45;;;;;;;19.45;9.15;;;;;;;10.34;100.00;101659.63;5102605;28;20500;-69
2023/02/19 00:09:15;;;;;;;17.27;8.07;;;;;;;10.34;100.00;101666.97;5045910;28;20109;-68
2023/02/19 00:11:43;;;;;;;18.08;8.05;;;;;;;10.32;100.00;101660.94;5134701;27;20475;-69
2023/02/19 00:14:15;;;;;;;19.55;8.48;;;;;;;10.30;100.00;101654.91;5064546;28;20067;-69
2023/02/19 00:16:43;;;;;;;18.25;7.68;;;;;;;10.30;100.00;101653.03;5109684;28;20048;-64
2023/02/19 00:19:16;;;;;;;18.95;8.50;;;;;;;10.31;100.00;101654.66;5112488;28;20075;-64
2023/02/19 00:21:44;;;;;;;18.35;7.63;;;;;;;10.30;100.00;101657.66;5107803;28;20052;-69
2023/02/19 00:24:13;;;;;;;19.88;7.70;;;;;;;10.30;100.00;101660.38;5095380;28;20062;-69
2023/02/19 00:26:42;;;;;;;18.50;8.00;;;;;;;10.28;100.00;101659.75;5095138;28;20050;-70
2023/02/19 00:29:17;;;;;;;25.13;8.25;;;;;;;10.27;100.00;101658.94;5110556;27;20048;-70
2023/02/19 00:31:45;;;;;;;18.20;7.75;;;;;;;10.26;100.00;101659.16;5094813;28;20119;-71
2023/02/19 00:34:13;;;;;;;18.10;7.35;;;;;;;10.24;100.00;101665.66;5060117;28;20039;-70
2023/02/19 00:36:41;;;;;;;19.83;7.65;;;;;;;10.26;100.00;101662.72;5093989;28;20052;-70
2023/02/19 00:39:12;;;;;;;19.77;7.85;;;;;;;10.23;100.00;101655.84;5101043;28;20130;-69
2023/02/19 00:41:40;;;;;;;17.25;7.75;;;;;;;10.25;100.00;101666.53;5094544;28;20051;-70
2023/02/19 00:44:11;;;;;;;17.67;7.28;;;;;;;10.24;100.00;101665.66;5093015;28;20093;-70
2023/02/19 00:46:44;;;;;;;18.58;8.05;;;;;;;10.28;100.00;101671.50;5083249;28;20063;-70
2023/02/19 00:49:17;;;;;;;20.25;7.70;;;;;;;10.23;100.00;101669.47;5113556;28;20487;-70
2023/02/19 00:51:45;;;;;;;20.42;6.80;;;;;;;10.22;100.00;101667.00;5111350;28;20056;-69
2023/02/19 00:54:13;;;;;;;18.17;7.40;;;;;;;10.21;100.00;101660.72;5092674;28;20491;-70
2023/02/19 00:56:41;;;;;;;20.52;7.38;;;;;;;10.19;100.00;101668.31;5064536;28;20051;-70
2023/02/19 00:59:09;;;;;;;22.40;7.55;;;;;;;10.18;100.00;101674.84;5113055;28;20046;-70
2023/02/19 01:01:37;;;;;;;21.75;7.57;;;;;;;10.18;100.00;101676.75;5113950;28;20495;-70
2023/02/19 01:04:05;;;;;;;18.95;7.28;;;;;;;10.17;100.00;101672.34;5096370;28;20048;-69
2023/02/19 01:06:34;;;;;;;20.95;7.35;;;;;;;10.17;100.00;101673.19;5116524;28;20039;-69
2023/02/19 01:09:03;;;;;;;19.25;6.95;;;;;;;10.17;100.00;101675.91;5117273;28;20096;-70
2023/02/19 01:11:31;;;;;;;21.42;6.88;;;;;;;10.18;100.00;101677.56;5115328;28;20434;-70
2023/02/19 01:13:59;;;;;;;20.77;7.40;;;;;;;10.15;100.00;101680.78;5080035;28;20490;-69
2023/02/19 01:16:29;;;;;;;23.48;7.50;;;;;;;10.15;100.00;101680.78;5078438;28;20047;-70
2023/02/19 01:18:58;;;;;;;20.73;7.50;;;;;;;10.14;100.00;101683.72;5096792;28;20163;-70
2023/02/19 01:21:26;;;;;;;21.48;7.30;;;;;;;10.12;100.00;101683.97;5096951;28;20119;-71
2023/02/19 01:23:55;;;;;;;19.58;7.25;;;;;;;10.12;100.00;101683.97;5098008;28;20101;-70
2023/02/19 01:26:27;;;;;;;21.83;7.45;;;;;;;10.15;100.00;101688.09;5110779;27;20059;-70
2023/02/19 01:28:55;;;;;;;23.20;7.43;;;;;;;10.14;100.00;101684.56;5116829;28;20051;-70
2023/02/19 01:31:24;;;;;;;20.58;6.95;;;;;;;10.09;100.00;101695.34;5112780;28;20076;-70
2023/02/19 01:33:56;;;;;;;21.50;6.47;;;;;;;10.09;100.00;101694.53;5096572;28;20437;-70
2023/02/19 01:36:24;;;;;;;16.85;6.38;;;;;;;10.10;100.00;101697.03;5105352;27;20046;-70
2023/02/19 01:38:52;;;;;;;22.50;6.20;;;;;;;10.08;100.00;101692.88;5082318;28;20044;-70
2023/02/19 01:41:23;;;;;;;21.23;7.35;;;;;;;10.08;100.00;101691.00;5117125;28;20407;-71
2023/02/19 01:43:57;;;;;;;17.13;6.22;;;;;;;10.08;100.00;101699.16;5116843;28;20140;-70
2023/02/19 01:46:32;;;;;;;21.42;6.65;;;;;;;10.08;100.00;101688.28;5099063;27;20035;-71
2023/02/19 01:49:31;;;;;;;22.13;6.73;;;;;;;10.09;100.00;101699.97;5116965;28;20070;-70
2023/02/19 01:52:03;;;;;;;18.67;5.38;;;;;;;10.08;100.00;101710.06;5105691;28;20121;-70
2023/02/19 01:54:33;;;;;;;19.35;6.40;;;;;;;10.08;100.00;101712.78;5063281;28;20058;-69
2023/02/19 01:57:05;;;;;;;19.75;6.88;;;;;;;10.08;100.00;101703.75;5084684;28;20070;-70
2023/02/19 01:59:33;;;;;;;19.73;6.53;;;;;;;10.08;100.00;101699.16;5115579;27;20058;-70
2023/02/19 02:02:01;;;;;;;21.85;6.85;;;;;;;10.07;100.00;101705.66;5114703;28;20103;-70
2023/02/19 02:04:31;;;;;;;22.13;6.30;;;;;;;10.07;100.00;101702.13;5099569;28;20518;-70
2023/02/19 02:07:01;;;;;;;19.73;6.75;;;;;;;10.05;100.00;101698.81;5098095;27;20040;-70
2023/02/19 02:12:16;;;;;;;21.58;6.60;;;;;;;10.03;100.00;101697.16;5112098;28;20537;-70
2023/02/19 02:14:46;;;;;;;21.02;6.38;;;;;;;10.02;100.00;101697.41;5116559;28;20452;-70
2023/02/19 02:17:53;;;;;;;18.58;6.70;;;;;;;10.03;100.00;101697.16;5098666;28;20062;-69
2023/02/19 02:20:32;;;;;;;19.83;6.57;;;;;;;10.00;100.00;101696.81;5095863;28;20067;-68
2023/02/19 02:23:03;;;;;;;26.38;7.75;;;;;;;9.98;100.00;101693.50;5096219;28;20052;-69
2023/02/19 02:25:51;;;;;;;20.65;6.28;;;;;;;9.99;100.00;101697.88;5078860;28;20537;-69
2023/02/19 02:28:34;;;;;;;20.73;6.95;;;;;;;10.01;100.00;101690.31;5110689;27;20047;-69
2023/02/19 02:31:06;;;;;;;20.92;7.05;;;;;;;9.97;100.00;101703.56;5116586;28;20043;-69
2023/02/19 02:33:47;;;;;;;17.17;5.63;;;;;;;10.04;100.00;101703.44;5114304;27;20479;-69
2023/02/19 02:36:19;;;;;;;20.15;6.43;;;;;;;10.28;100.00;101697.88;5082178;28;20071;-69
2023/02/19 02:38:48;;;;;;;25.23;6.63;;;;;;;10.32;100.00;101709.94;5098598;27;20052;-69
2023/02/19 02:41:20;;;;;;;25.88;6.65;;;;;;;10.36;100.00;101706.50;5095487;28;20048;-69
2023/02/19 02:43:50;;;;;;;24.13;6.40;;;;;;;10.37;100.00;101707.34;5078373;28;20044;-69
2023/02/19 02:46:21;;;;;;;23.90;6.47;;;;;;;10.35;100.00;101707.59;5101512;28;20044;-69
2023/02/19 02:48:56;;;;;;;18.15;5.72;;;;;;;10.43;100.00;101707.16;5097983;28;20097;-68
2023/02/19 02:51:37;;;;;;;23.67;7.07;;;;;;;10.37;100.00;101710.91;5111512;28;20040;-68
2023/02/19 02:57:13;;;;;;;22.73;6.53;;;;;;;10.24;100.00;101709.25;5098696;28;20050;-69
2023/02/19 02:59:48;;;;;;;17.27;5.93;;;;;;;10.19;100.00;101711.88;5113620;27;20039;-70
2023/02/19 03:02:24;;;;;;;19.88;5.75;;;;;;;10.17;100.00;101718.63;5099629;28;20043;-69
2023/02/19 03:08:11;;;;;;;23.63;6.53;;;;;;;10.33;100.00;101711.63;5115082;28;20044;-69
2023/02/19 03:10:46;;;;;;;23.70;6.10;;;;;;;10.31;100.00;101708.31;5078976;28;20049;-68
2023/02/19 03:19:18;;;;;;;22.63;5.82;;;;;;;10.29;100.00;101722.16;5114362;28;20051;-68
2023/02/19 03:22:26;;;;;;;19.17;5.38;;;;;;;10.23;100.00;101734.03;5095024;28;20044;-69
2023/02/19 03:27:46;;;;;;;20.27;5.55;;;;;;;10.10;100.00;101740.59;5080254;28;20093;-69
2023/02/19 03:30:21;;;;;;;21.80;5.50;;;;;;;10.15;100.00;101735.25;5062665;28;20090;-69
2023/02/19 03:32:58;;;;;;;21.42;5.53;;;;;;;10.19;100.00;101728.22;5105836;27;20480;-69
2023/02/19 03:35:55;;;;;;;23.13;5.32;;;;;;;10.18;100.00;101732.03;5094553;28;20046;-69
2023/02/19 03:38:44;;;;;;;19.35;4.93;;;;;;;10.21;100.00;101731.53;5111462;28;20093;-69
2023/02/19 03:41:38;;;;;;;20.25;5.40;;;;;;;10.15;100.00;101731.66;5087413;28;20048;-68
2023/02/19 03:44:26;;;;;;;18.50;5.30;;;;;;;10.13;100.00;101742.81;5101984;27;20044;-69
2023/02/19 03:47:05;;;;;;;20.08;4.82;;;;;;;10.10;100.00;101743.31;5098300;28;20035;-69
2023/02/19 03:50:04;;;;;;;21.48;5.95;;;;;;;10.19;100.00;101754.63;5113588;28;20043;-69
2023/02/19 03:52:40;;;;;;;24.33;5.38;;;;;;;10.17;100.00;101757.63;5081444;27;20130;-68
2023/02/19 03:55:12;;;;;;;20.95;5.43;;;;;;;10.14;100.00;101755.34;5106097;28;20043;-63
2023/02/19 03:57:52;;;;;;;18.17;4.93;;;;;;;10.16;100.00;101766.84;5115271;28;20073;-66
2023/02/19 04:00:29;;;;;;;18.65;5.03;;;;;;;10.11;100.00;101764.00;5104652;28;20052;-68
2023/02/19 04:03:17;;;;;;;15.98;5.20;;;;;;;10.07;100.00;101762.03;5110223;27;20079;-68
2023/02/19 04:05:48;;;;;;;19.50;4.97;;;;;;;10.11;100.00;101774.91;5134386;27;20067;-64
2023/02/19 04:08:19;;;;;;;16.48;4.78;;;;;;;10.08;100.00;101780.84;5147842;27;20054;-64
2023/02/19 04:10:54;;;;;;;19.23;4.63;;;;;;;10.10;100.00;101784.16;5111261;28;20048;-69
2023/02/19 04:13:41;;;;;;;24.40;5.57;;;;;;;10.14;100.00;101789.94;5096701;27;20054;-70
2023/02/19 04:16:16;;;;;;;17.92;4.93;;;;;;;10.21;100.00;101796.91;5109696;28;20051;-68
2023/02/19 04:18:48;;;;;;;18.25;5.00;;;;;;;10.27;100.00;101794.28;5063801;28;20101;-66
2023/02/19 04:21:17;;;;;;;19.75;5.53;;;;;;;10.15;100.00;101800.59;5098303;28;20044;-69
2023/02/19 04:23:45;;;;;;;21.42;5.10;;;;;;;10.13;100.00;101800.00;5059706;28;20055;-70
2023/02/19 04:26:14;;;;;;;22.83;5.35;;;;;;;10.12;100.00;101798.34;5096786;28;20159;-69
2023/02/19 04:28:43;;;;;;;17.83;4.50;;;;;;;10.11;100.00;101806.75;5113496;28;20048;-69
2023/02/19 04:31:11;;;;;;;18.00;4.78;;;;;;;10.18;100.00;101808.28;5115601;28;20051;-69
2023/02/19 04:33:39;;;;;;;23.17;5.20;;;;;;;10.11;100.00;101809.50;5114101;28;20067;-68
2023/02/19 04:36:08;;;;;;;20.20;5.72;;;;;;;10.05;100.00;101813.97;5100353;27;20400;-70
2023/02/19 04:38:36;;;;;;;18.00;4.68;;;;;;;10.05;100.00;101813.97;5092840;28;20047;-68
2023/02/19 04:41:04;;;;;;;14.00;4.20;;;;;;;10.05;100.00;101813.16;5092855;28;20055;-69
2023/02/19 04:43:31;;;;;;;18.58;4.88;;;;;;;10.08;100.00;101821.69;5094032;28;20048;-69
2023/02/19 04:46:00;;;;;;;20.23;5.18;;;;;;;10.11;100.00;101823.94;5104242;28;20047;-69
2023/02/19 04:48:28;;;;;;;17.73;4.60;;;;;;;10.14;100.00;101828.88;5111887;28;20108;-69
2023/02/19 04:50:56;;;;;;;21.00;5.63;;;;;;;10.10;100.00;101844.06;5113865;28;20491;-69
2023/02/19 04:53:24;;;;;;;15.05;4.53;;;;;;;10.05;100.00;101843.94;5115258;28;20050;-69
2023/02/19 04:55:53;;;;;;;21.08;5.32;;;;;;;10.11;100.00;101847.63;5115072;28;20036;-69
2023/02/19 04:58:22;;;;;;;19.92;4.70;;;;;;;10.07;100.00;101851.88;5107766;28;20135;-69
2023/02/19 05:00:52;;;;;;;14.32;4.45;;;;;;;10.07;100.00;101860.88;5113096;28;20040;-70
2023/02/19 05:03:20;;;;;;;20.52;4.80;;;;;;;10.11;100.00;101866.69;5110996;28;20044;-69
2023/02/19 05:05:47;;;;;;;17.38;5.07;;;;;;;10.10;100.00;101868.56;5112048;28;20051;-69
2023/02/19 05:08:15;;;;;;;18.95;5.00;;;;;;;10.05;100.00;101862.16;5111005;28;20040;-69
2023/02/19 05:10:43;;;;;;;16.73;4.70;;;;;;;10.06;100.00;101870.13;5113418;28;20294;-69
2023/02/19 05:13:10;;;;;;;15.68;4.50;;;;;;;10.07;100.00;101869.03;5113503;28;20134;-69
2023/02/19 05:15:38;;;;;;;15.90;4.63;;;;;;;10.14;100.00;101877.91;5113103;28;20044;-69
2023/02/19 05:18:06;;;;;;;21.40;5.22;;;;;;;10.19;100.00;101880.72;5105451;28;20533;-69
2023/02/19 05:20:33;;;;;;;19.08;4.90;;;;;;;10.19;100.00;101888.91;5104368;28;20055;-70
2023/02/19 05:23:01;;;;;;;17.10;4.90;;;;;;;10.11;100.00;101874.84;5114099;28;20057;-69
2023/02/19 05:25:29;;;;;;;18.00;5.22;;;;;;;10.10;100.00;101886.78;5113852;28;20131;-69
2023/02/19 05:28:15;;;;;;;19.35;5.10;;;;;;;9.97;100.00;101882.44;5111753;28;20044;-69
2023/02/19 05:30:48;;;;;;;21.95;5.28;;;;;;;9.93;100.00;101875.78;5111851;28;20063;-69
2023/02/19 05:33:17;;;;;;;21.27;5.07;;;;;;;10.00;100.00;101881.94;5114869;28;20096;-69
2023/02/19 05:35:47;;;;;;;22.50;4.50;;;;;;;10.01;100.00;101889.06;5115210;28;20040;-69
2023/02/19 05:38:15;;;;;;;13.63;4.25;;;;;;;10.01;100.00;101889.06;5112589;28;20502;-69
2023/02/19 05:40:44;;;;;;;18.27;4.60;;;;;;;10.03;100.00;101892.38;5097499;28;20044;-69
2023/02/19 05:43:12;;;;;;;18.30;4.82;;;;;;;10.07;100.00;101896.25;5113785;28;20250;-69
2023/02/19 05:45:40;;;;;;;20.17;5.03;;;;;;;10.03;100.00;101884.22;5115531;28;20480;-69
2023/02/19 05:48:09;;;;;;;18.05;5.45;;;;;;;9.92;100.00;101891.31;5113814;28;20063;-69
2023/02/19 05:50:37;;;;;;;19.52;4.50;;;;;;;9.97;100.00;101888.69;5076415;28;20500;-68
2023/02/19 05:53:12;;;;;;;26.90;6.00;;;;;;;10.04;100.00;101899.47;5096590;28;20395;-70
2023/02/19 05:55:39;;;;;;;19.48;5.35;;;;;;;10.07;100.00;101898.16;5096634;28;20127;-69
2023/02/19 05:58:07;;;;;;;17.42;4.55;;;;;;;10.04;100.00;101902.19;5069033;28;20044;-68
2023/02/19 06:00:35;;;;;;;17.80;4.72;;;;;;;10.00;100.00;101899.09;5101263;27;20381;-68
2023/02/19 06:03:03;;;;;;;18.73;4.78;;;;;;;9.97;100.00;101896.88;5116350;28;20568;-68
2023/02/19 06:05:30;;;;;;;16.05;4.50;;;;;;;9.99;100.00;101896.63;5115932;28;20061;-68
2023/02/19 06:07:58;;;;;;;18.75;4.80;;;;;;;9.97;100.00;101901.50;5115237;28;20042;-68
2023/02/19 06:10:27;;;;;;;17.98;5.03;;;;;;;9.99;100.00;101905.63;5116754;28;20488;-69
2023/02/19 06:12:54;;;;;;;18.55;4.43;;;;;;;9.91;100.00;101907.88;5095240;28;20040;-67
2023/02/19 06:15:22;;;;;;;20.88;4.78;;;;;;;9.78;100.00;101912.47;5096369;28;20052;-68
2023/02/19 06:17:50;;;;;;;17.10;4.65;;;;;;;9.78;100.00;101909.75;5101037;28;20047;-70
2023/02/19 06:20:17;;;;;;;16.10;4.45;;;;;;;9.75;100.00;101912.97;5108426;27;20559;-69
2023/02/19 06:22:45;;;;;;;17.80;5.22;;;;;;;9.77;100.00;101915.47;5102868;28;20047;-70
2023/02/19 06:25:13;;;;;;;22.95;4.75;;;;;;;9.87;100.00;101925.75;5114862;27;20055;-69
2023/02/19 06:27:40;;;;;;;16.60;4.85;;;;;;;9.89;100.00;101924.47;5117835;27;20040;-69
2023/02/19 06:30:09;;;;;;;16.77;4.60;;;;;;;9.85;100.00;101922.44;5116121;28;21899;-69
2023/02/19 06:32:36;;;;;;;18.42;5.03;;;;;;;9.81;100.00;101930.22;5114985;28;20052;-70
2023/02/19 06:35:04;;;;;;;16.95;4.97;;;;;;;9.80;100.00;101923.97;5116709;28;20440;-69
2023/02/19 06:37:32;;;;;;;19.33;4.50;;;;;;;9.85;100.00;101939.59;5116606;28;20043;-69
2023/02/19 06:40:00;;;;;;;16.83;4.85;;;;;;;9.76;100.00;101952.72;5102471;28;20067;-68
2023/02/19 06:42:31;;;;;;;19.42;4.90;;;;;;;9.82;100.00;101957.22;5096094;28;20048;-69
2023/02/19 06:44:59;;;;;;;21.13;5.40;;;;;;;9.88;100.00;101960.06;5096053;28;20044;-69
2023/02/19 06:47:30;;;;;;;17.88;4.68;;;;;;;9.81;100.00;101971.91;5094983;28;20212;-70
2023/02/19 06:49:59;;;;;;;18.00;5.05;;;;;;;9.72;100.00;101967.88;5094406;28;20056;-69
2023/02/19 06:52:27;;;;;;;19.10;5.43;;;;;;;9.66;100.00;101970.69;5097768;28;20048;-70
2023/02/19 06:54:55;;;;;;;17.67;4.63;;;;;;;9.61;100.00;101971.38;5115981;28;20050;-70
2023/02/19 06:57:22;;;;;;;18.40;4.93;;;;;;;9.56;100.00;101968.53;5098056;28;20048;-70
2023/02/19 06:59:50;;;;;;;17.65;5.03;;;;;;;9.53;100.00;101963.56;5110707;28;20053;-70
2023/02/19 07:02:18;;;;;;;20.65;5.22;;;;;;;9.52;100.00;101962.72;5114705;28;20411;-70
2023/02/19 07:04:45;;;;;;;21.42;6.00;;;;;;;9.50;100.00;101967.59;5099319;28;20056;-69
2023/02/19 07:07:13;;;;;;;20.13;5.47;;;;;;;9.49;100.00;101968.63;5095877;28;20055;-69
2023/02/19 07:09:40;;;;;;;20.58;5.13;;;;;;;9.50;100.00;101975.75;5095716;28;20055;-70
2023/02/19 07:12:09;;;;;;;20.25;5.35;;;;;;;9.50;100.00;101980.34;5096591;28;20556;-70
2023/02/19 07:14:36;;;;;;;19.50;4.80;;;;;;;9.49;100.00;101986.84;5096351;28;20134;-71
2023/02/19 07:17:04;;;;;;;16.80;4.72;;;;;;;9.49;100.00;101987.69;5098563;28;20032;-69
2023/02/19 07:19:31;;;;;;;15.45;4.60;;;;;;;9.51;100.00;101987.47;5105548;27;20052;-69
2023/02/19 07:21:59;;;;;;;17.95;4.88;;;;;;;9.52;100.00;101994.53;5120509;27;20498;-68
2023/02/19 07:24:27;;;;;;;16.45;4.93;;;;;;;9.51;100.00;102001.88;5112392;27;20483;-69
2023/02/19 07:26:54;;;;;;;14.07;4.82;;;;;;;9.52;100.00;102008.16;5112535;27;20047;-69
2023/02/19 07:29:22;;;;;;;14.63;5.03;;;;;;;9.48;100.00;102005.06;5115122;28;20039;-69
2023/02/19 07:31:50;;;;;;;16.02;5.07;;;;;;;9.47;100.00;102018.91;5110494;28;20047;-69
2023/02/19 07:34:17;;;;;;;12.98;4.90;;;;;;;9.45;100.00;102027.28;5115637;28;20052;-69
2023/02/19 07:36:45;;;;;;;10.68;4.35;;;;;;;9.44;100.00;102039.22;5116856;27;20399;-69
2023/02/19 07:39:14;;;;;;;11.10;4.10;;;;;;;9.45;100.00;102032.72;5114278;27;20083;-69
2023/02/19 07:41:42;;;;;;;14.60;4.43;;;;;;;9.44;100.00;102035.69;5113837;28;20043;-69
2023/02/19 07:44:17;;;;;;;17.15;4.57;;;;;;;9.44;100.00;102046.56;5099368;28;20048;-67
2023/02/19 07:46:44;;;;;;;11.60;4.22;;;;;;;9.38;100.00;102049.16;5117187;28;20050;-66
2023/02/19 07:49:12;;;;;;;11.13;4.50;;;;;;;9.39;100.00;102056.25;5113941;28;20063;-64
2023/02/19 07:51:40;;;;;;;16.70;4.80;;;;;;;9.38;100.00;102060.03;5128418;28;20044;-66
2023/02/19 07:54:07;;;;;;;11.68;4.57;;;;;;;9.38;100.00;102064.66;5104893;28;20653;-65
2023/02/19 07:56:35;;;;;;;12.85;4.75;;;;;;;9.34;100.00;102068.88;5089188;28;20048;-66
2023/02/19 07:59:03;;;;;;;11.48;4.25;;;;;;;9.29;100.00;102076.91;5084632;28;20105;-68
2023/02/19 08:04:16;;;;;;;10.98;4.45;;;;;;;9.27;100.00;102079.84;5093613;28;20071;-67
2023/02/19 08:06:44;;;;;;;12.38;5.47;;;;;;;9.28;100.00;102081.47;5095067;28;20055;-66
2023/02/19 08:09:12;;;;;;;12.93;4.80;;;;;;;9.27;100.00;102085.28;5093523;28;20048;-67
2023/02/19 08:14:26;;;;;;;12.32;4.85;;;;;;;9.31;100.00;102100.09;5114483;28;20054;-67
2023/02/19 08:16:54;;;;;;;9.45;4.85;;;;;;;9.32;100.00;102090.03;5096429;28;20048;-67
2023/02/19 08:19:22;;;;;;;14.10;5.03;;;;;;;9.29;100.00;102098.66;5113687;28;20039;-67
2023/02/19 08:21:49;;;;;;;13.57;5.13;;;;;;;9.27;100.00;102096.16;5111911;28;20505;-67
2023/02/19 08:24:17;;;;;;;16.42;5.75;;;;;;;9.26;100.00;102099.94;5076215;28;20539;-67
2023/02/19 08:26:45;;;;;;;12.52;5.57;;;;;;;9.28;100.00;102103.25;5094169;28;20046;-66
2023/02/19 08:29:13;;;;;;;13.52;5.40;;;;;;;9.31;100.00;102100.09;5094309;28;20574;-66
2023/02/19 08:31:40;;;;;;;12.93;5.57;;;;;;;9.33;100.00;102108.84;5082857;28;20044;-67
2023/02/19 08:34:08;;;;;;;16.17;6.13;;;;;;;9.35;100.00;102108.59;5113038;28;20065;-67
2023/02/19 08:36:36;;;;;;;12.70;5.40;;;;;;;9.37;100.00;102106.50;5113063;28;20044;-66
2023/02/19 08:39:04;;;;;;;14.80;5.30;;;;;;;9.35;100.00;102104.00;5096690;28;20076;-66
2023/02/19 08:41:32;;;;;;;12.63;5.38;;;;;;;9.29;100.00;102104.94;5112091;28;20046;-67
2023/02/19 08:43:59;;;;;;;11.18;4.78;;;;;;;9.28;100.00;102114.13;5113954;28;20047;-66
2023/02/19 08:46:27;;;;;;;14.93;5.10;;;;;;;9.27;100.00;102109.75;5114268;28;20040;-67
2023/02/19 08:48:55;;;;;;;12.27;5.30;;;;;;;9.28;100.00;102125.00;5114186;28;20043;-66
2023/02/19 08:51:22;;;;;;;12.30;4.78;;;;;;;9.30;100.00;102127.50;5105485;28;20052;-66
2023/02/19 08:53:50;;;;;;;13.25;4.95;;;;;;;9.29;100.00;102129.41;5094264;28;20043;-66
2023/02/19 08:56:18;;;;;;;14.00;5.00;;;;;;;9.24;100.00;102126.53;5092337;28;20044;-67
2023/02/19 08:58:46;;;;;;;11.13;4.72;;;;;;;9.25;100.00;102135.53;5093803;28;20411;-66
2023/02/19 09:01:17;;;;;;;10.63;4.80;;;;;;;9.25;100.00;102130.91;5076575;28;20068;-67
2023/02/19 09:03:45;;;;;;;8.93;3.95;;;;;;;9.23;100.00;102138.44;5075916;28;20052;-68
2023/02/19 09:06:15;;;;;;;10.48;4.28;;;;;;;9.22;100.00;102153.13;5075826;28;20080;-67
2023/02/19 09:08:43;;;;;;;9.90;4.60;;;;;;;9.24;100.00;102150.19;5075953;28;20062;-66
2023/02/19 09:11:11;;;;;;;11.77;4.20;;;;;;;9.22;100.00;102147.69;5083255;28;20047;-67
2023/02/19 09:13:39;;;;;;;11.43;4.40;;;;;;;9.14;100.00;102156.97;5113324;28;20058;-66
2023/02/19 09:16:07;;;;;;;10.82;4.18;;;;;;;9.12;100.00;102152.81;5113147;28;20055;-67
2023/02/19 09:18:35;;;;;;;10.27;3.90;;;;;;;9.15;100.00;102153.19;5113656;28;20044;-67
2023/02/19 09:21:04;;;;;;;10.65;4.65;;;;;;;9.19;100.00;102159.03;5112490;28;20119;-67
2023/02/19 09:23:33;;;;;;;12.23;4.88;;;;;;;9.20;100.00;102143.53;5096088;28;20118;-67
2023/02/19 09:26:02;;;;;;;9.82;4.20;;;;;;;9.22;100.00;102147.69;5113414;28;20066;-67
2023/02/19 09:28:30;;;;;;;10.35;4.68;;;;;;;9.21;100.00;102146.00;5117823;28;20040;-68
2023/02/19 09:31:13;;;;;;;9.30;3.90;;;;;;;9.15;100.00;102150.47;5099689;28;20055;-67
2023/02/19 09:33:42;;;;;;;8.73;3.60;;;;;;;9.14;100.00;102156.16;5116815;28;20043;-67
2023/02/19 09:36:10;;;;;;;9.02;3.33;;;;;;;9.14;100.00;102159.69;5099804;28;20059;-67
2023/02/19 09:38:39;;;;;;;10.48;4.05;;;;;;;9.15;100.00;102152.38;5099456;28;20040;-67
2023/02/19 09:41:30;;;;;;;12.45;3.83;;;;;;;9.17;100.00;102152.97;5116840;28;20055;-68
2023/02/19 09:44:00;;;;;;;10.27;3.63;;;;;;;9.15;100.00;102172.22;5115744;28;20070;-68
2023/02/19 09:46:49;;;;;;;9.73;3.67;;;;;;;9.15;100.00;102169.50;5116606;28;20054;-67
2023/02/19 09:49:20;;;;;;;9.48;3.17;;;;;;;9.18;100.00;102174.47;5099795;28;20051;-67
2023/02/19 09:52:33;;;;;;;8.05;3.22;;;;;;;9.21;100.00;102189.50;5099126;28;20069;-67
2023/02/19 09:55:12;;;;;;;10.48;3.60;;;;;;;9.25;100.00;102200.78;5113621;28;20051;-67
2023/02/19 09:57:40;;;;;;;11.50;3.80;;;;;;;9.25;100.00;102215.22;5116227;28;20491;-68
2023/02/19 10:00:11;;;;;;;13.65;3.08;;;;;;;9.21;100.00;102216.72;5117328;28;20131;-67
2023/02/19 10:02:38;;;;;;;10.02;3.17;;;;;;;9.22;100.00;102226.56;5115667;28;20074;-67
2023/02/19 10:05:12;;;;;;;9.63;3.33;;;;;;;9.21;100.00;102233.03;5113827;28;20495;-67
2023/02/19 10:07:44;;;;;;;9.52;3.53;;;;;;;9.22;100.00;102234.72;5117561;27;20492;-67
2023/02/19 10:10:14;;;;;;;9.85;3.47;;;;;;;9.22;100.00;102240.16;5116066;28;20047;-68
2023/02/19 10:12:51;;;;;;;9.88;3.83;;;;;;;9.22;100.00;102245.59;5111571;28;20040;-67
2023/02/19 10:15:33;;;;;;;11.52;3.60;;;;;;;9.27;100.00;102248.47;5078357;28;20055;-67
2023/02/19 10:18:02;;;;;;;8.15;3.15;;;;;;;9.33;100.00;102249.44;5078408;28;20040;-67
2023/02/19 10:20:30;;;;;;;10.95;3.55;;;;;;;9.33;100.00;102253.00;5095390;28;20047;-67
2023/02/19 10:23:06;;;;;;;13.25;3.78;;;;;;;9.32;100.00;102254.06;5097890;28;20047;-67
2023/02/19 10:25:35;;;;;;;11.30;3.55;;;;;;;9.36;100.00;102258.00;5095645;28;20051;-68
2023/02/19 10:28:03;;;;;;;8.95;3.55;;;;;;;9.38;100.00;102255.88;5096180;28;20044;-67
2023/02/19 10:30:33;;;;;;;10.45;3.90;;;;;;;9.42;100.00;102267.13;5079254;28;20492;-68
2023/02/19 10:33:08;;;;;;;9.95;3.30;;;;;;;9.45;100.00;102265.84;5105526;28;20043;-67
2023/02/19 10:35:37;;;;;;;8.95;3.40;;;;;;;9.49;100.00;102283.41;5116613;28;20048;-67
2023/02/19 10:38:07;;;;;;;8.95;3.00;;;;;;;9.44;100.00;102289.53;5114180;28;20404;-67
2023/02/19 10:40:34;;;;;;;6.55;2.90;;;;;;;9.45;100.00;102287.63;5098539;28;20078;-67
2023/02/19 10:43:04;;;;;;;6.85;3.05;;;;;;;9.44;100.00;102288.69;5108308;28;20389;-67
2023/02/19 10:45:38;;;;;;;7.78;3.10;;;;;;;9.50;100.00;102291.34;5094939;28;20147;-67
2023/02/19 10:48:38;;;;;;;6.45;2.88;;;;;;;9.54;100.00;102297.16;5094791;28;20051;-67
2023/02/19 10:51:08;;;;;;;7.65;3.10;;;;;;;9.55;100.00;102304.28;5095295;28;20055;-67
2023/02/19 10:53:48;;;;;;;9.02;3.42;;;;;;;9.52;100.00;102299.28;5096503;28;20048;-68
2023/02/19 10:56:25;;;;;;;8.10;3.13;;;;;;;9.51;100.00;102305.78;5096550;28;20040;-67
2023/02/19 10:58:54;;;;;;;8.32;3.38;;;;;;;9.51;100.00;102309.31;5094594;28;20044;-68
2023/02/19 11:01:25;;;;;;;5.95;3.00;;;;;;;9.55;100.00;102301.56;5045501;28;20054;-67
2023/02/19 11:04:16;;;;;;;9.88;3.20;;;;;;;9.57;100.00;102303.00;5095343;28;20082;-67
2023/02/19 11:06:44;;;;;;;15.02;3.70;;;;;;;9.56;100.00;102300.50;5095433;28;20075;-67
2023/02/19 11:09:38;;;;;;;11.00;4.00;;;;;;;9.55;100.00;102304.28;5094380;28;20050;-67
2023/02/19 11:12:06;;;;;;;14.85;3.83;;;;;;;9.55;100.00;102293.41;5094691;28;20048;-67
2023/02/19 11:14:36;;;;;;;9.95;3.38;;;;;;;9.57;100.00;102300.28;5078021;28;20051;-67
2023/02/19 11:17:04;;;;;;;14.95;4.20;;;;;;;9.59;100.00;102286.44;5094337;28;20524;-67
2023/02/19 11:19:35;;;;;;;10.35;3.70;;;;;;;9.66;100.00;102294.53;5110769;28;20061;-67
2023/02/19 11:22:28;;;;;;;12.20;3.30;;;;;;;9.70;100.00;102279.44;5115861;28;20095;-67
2023/02/19 11:24:57;;;;;;;11.68;4.15;;;;;;;9.70;100.00;102282.16;5115841;28;20051;-67
2023/02/19 11:27:26;;;;;;;11.27;3.70;;;;;;;9.69;100.00;102270.44;5117741;28;20138;-67
2023/02/19 11:29:53;;;;;;;11.52;3.38;;;;;;;9.70;100.00;102269.38;5122100;28;20122;-67
2023/02/19 11:32:29;;;;;;;11.70;3.55;;;;;;;9.72;100.00;102274.59;5117095;28;20071;-66
2023/02/19 11:35:16;;;;;;;12.45;4.47;;;;;;;9.72;100.00;102280.03;5125021;28;20070;-64
2023/02/19 11:38:01;;;;;;;12.38;3.95;;;;;;;9.68;100.00;102285.09;5126874;28;20074;-65
2023/02/19 11:40:52;;;;;;;10.20;3.40;;;;;;;9.63;100.00;102284.94;5105534;28;20065;-68
2023/02/19 11:43:41;;;;;;;9.20;3.35;;;;;;;9.59;100.00;102281.81;5114798;28;20074;-63
2023/02/19 11:46:56;;;;;;;9.27;3.28;;;;;;;9.54;100.00;102289.00;5115288;28;20076;-65
2023/02/19 11:49:38;;;;;;;10.20;3.28;;;;;;;9.51;100.00;102303.06;5074397;28;20112;-67
2023/02/19 11:52:36;;;;;;;9.45;3.30;;;;;;;9.47;100.00;102294.50;5114766;28;20126;-67
2023/02/19 11:55:10;;;;;;;12.18;3.45;;;;;;;9.47;100.00;102293.69;5114013;28;20491;-67
2023/02/19 11:57:42;;;;;;;10.10;3.17;;;;;;;9.50;100.00;102299.50;5114644;28;20045;-67
2023/02/19 12:00:31;;;;;;;9.00;3.35;;;;;;;9.53;100.00;102299.06;5115135;28;20044;-67